Time,TemperatureF,DewpointF,PressureIn,WindDirection,WindDirectionDegrees,WindSpeedMPH,WindSpeedGustMPH,Humidity,HourlyPrecipIn,Conditions,Clouds,dailyrainin,SoftwareType,DateUTC
2018-01-23 00:04:00,22.1,21.6,28.01,North,0,2.0,2.0,98,0.00,,,0.00,myAcuRite,2018-01-23 05:04:00,
2018-01-23 00:09:00,22.1,21.6,28.01,NNE,23,5.0,6.0,98,0.00,,,0.00,myAcuRite,2018-01-23 05:09:00,
2018-01-23 00:20:00,21.7,21.2,28.01,NNE,23,2.0,2.0,98,0.00,,,0.00,myAcuRite,2018-01-23 05:20:00,
2018-01-23 00:25:00,21.7,21.2,28.01,North,0,0.0,4.0,98,0.00,,,0.00,myAcuRite,2018-01-23 05:25:00,
2018-01-23 00:30:00,21.7,21.2,28.01,NNE,23,1.0,4.0,98,0.00,,,0.00,myAcuRite,2018-01-23 05:30:00,
2018-01-23 00:35:00,21.7,21.2,28.01,NNW,338,1.0,1.0,98,0.00,,,0.00,myAcuRite,2018-01-23 05:35:00,
2018-01-23 00:40:00,21.6,21.1,28.01,NNW,338,1.0,1.0,98,0.00,,,0.00,myAcuRite,2018-01-23 05:40:00,
2018-01-23 00:46:00,21.6,21.1,28.01,NE,45,2.0,4.0,98,0.00,,,0.00,myAcuRite,2018-01-23 05:46:00,
2018-01-23 00:51:00,21.4,20.9,28.01,NE,45,6.0,6.0,98,0.00,,,0.00,myAcuRite,2018-01-23 05:51:00,
2018-01-23 01:02:00,21.4,20.9,28.01,NNE,23,2.0,6.0,98,0.00,,,0.00,myAcuRite,2018-01-23 06:02:00,
2018-01-23 01:07:00,21.2,20.7,28.00,NNW,338,4.0,4.0,98,0.00,,,0.00,myAcuRite,2018-01-23 06:07:00,
2018-01-23 01:12:00,21.2,20.7,28.00,North,0,0.0,0.0,98,0.00,,,0.00,myAcuRite,2018-01-23 06:12:00,
2018-01-23 01:17:00,21.2,20.7,28.00,North,0,2.0,2.0,98,0.00,,,0.00,myAcuRite,2018-01-23 06:17:00,
2018-01-23 01:23:00,21.2,20.7,28.00,NNE,23,2.0,3.0,98,0.00,,,0.00,myAcuRite,2018-01-23 06:23:00,
2018-01-23 01:30:00,21.0,20.5,28.00,NE,45,4.0,5.0,98,0.00,,,0.00,myAcuRite,2018-01-23 06:30:00,
2018-01-23 01:36:00,21.0,20.5,27.99,NNW,338,3.0,3.0,98,0.00,,,0.00,myAcuRite,2018-01-23 06:36:00,
2018-01-23 01:41:00,20.8,20.3,27.99,ENE,68,2.0,4.0,98,0.00,,,0.00,myAcuRite,2018-01-23 06:41:00,
2018-01-23 01:46:00,20.7,20.2,28.00,NW,315,1.0,3.0,98,0.00,,,0.00,myAcuRite,2018-01-23 06:46:00,
2018-01-23 01:57:00,20.5,20.0,28.00,North,0,5.0,6.0,98,0.00,,,0.00,myAcuRite,2018-01-23 06:57:00,
2018-01-23 02:02:00,20.5,20.0,27.99,WNW,293,3.0,5.0,98,0.00,,,0.00,myAcuRite,2018-01-23 07:02:00,
2018-01-23 02:08:00,20.3,19.8,27.99,North,0,2.0,2.0,98,0.00,,,0.00,myAcuRite,2018-01-23 07:08:00,
2018-01-23 02:19:00,20.1,19.6,28.00,NNW,338,4.0,4.0,98,0.00,,,0.00,myAcuRite,2018-01-23 07:19:00,
2018-01-23 02:26:00,20.1,19.6,28.00,NNE,23,7.0,7.0,98,0.00,,,0.00,myAcuRite,2018-01-23 07:26:00,
2018-01-23 02:31:00,19.9,19.4,28.00,NNW,338,4.0,4.0,98,0.00,,,0.00,myAcuRite,2018-01-23 07:31:00,
2018-01-23 02:37:00,19.8,19.3,28.00,NE,45,5.0,5.0,98,0.00,,,0.00,myAcuRite,2018-01-23 07:37:00,
2018-01-23 02:55:00,19.6,19.1,28.00,NNW,338,2.0,2.0,98,0.00,,,0.00,myAcuRite,2018-01-23 07:55:00,
2018-01-23 03:02:00,19.4,18.9,28.01,NNE,23,4.0,6.0,98,0.00,,,0.00,myAcuRite,2018-01-23 08:02:00,
2018-01-23 03:08:00,19.4,18.9,28.01,North,0,2.0,2.0,98,0.00,,,0.00,myAcuRite,2018-01-23 08:08:00,
2018-01-23 03:13:00,19.4,18.9,28.01,NNW,338,6.0,6.0,98,0.00,,,0.00,myAcuRite,2018-01-23 08:13:00,
2018-01-23 03:20:00,19.2,18.7,28.01,West,270,2.0,8.0,98,0.00,,,0.00,myAcuRite,2018-01-23 08:20:00,
2018-01-23 03:29:00,19.2,18.7,28.02,North,0,2.0,2.0,98,0.00,,,0.00,myAcuRite,2018-01-23 08:29:00,